createdAt,value
2023-05-03T00:00:42.263Z,6.60
2023-05-03T00:03:09.735Z,6.60
2023-05-03T00:05:37.969Z,6.60
2023-05-03T00:08:05.752Z,6.50
2023-05-03T00:10:33.042Z,6.50
2023-05-03T00:13:01.211Z,6.50
2023-05-03T00:15:28.687Z,6.50
2023-05-03T00:17:56.003Z,6.50
2023-05-03T00:20:23.470Z,6.50
2023-05-03T00:22:50.748Z,6.40
2023-05-03T00:25:18.374Z,6.40
2023-05-03T00:27:45.582Z,6.40
2023-05-03T00:30:13.651Z,6.40
2023-05-03T00:32:40.933Z,6.40
2023-05-03T00:35:08.756Z,6.40
2023-05-03T00:37:37.825Z,6.40
2023-05-03T00:40:05.595Z,6.40
2023-05-03T00:42:36.800Z,6.40
2023-05-03T00:45:06.411Z,6.40
2023-05-03T00:47:34.026Z,6.40
2023-05-03T00:50:02.255Z,6.40
2023-05-03T00:52:31.346Z,6.40
2023-05-03T00:54:58.831Z,6.50
2023-05-03T00:57:27.856Z,6.50
2023-05-03T00:59:57.635Z,6.50
2023-05-03T01:02:25.329Z,6.50
2023-05-03T01:04:54.021Z,6.50
2023-05-03T01:07:24.111Z,6.60
2023-05-03T01:10:05.141Z,6.50
2023-05-03T01:13:01.410Z,6.50
2023-05-03T01:16:01.386Z,6.50
2023-05-03T01:18:33.408Z,6.50
2023-05-03T01:21:03.018Z,6.50
2023-05-03T01:23:41.124Z,6.50
2023-05-03T01:26:22.970Z,6.50
2023-05-03T01:28:51.180Z,6.50
2023-05-03T01:31:30.600Z,6.50
2023-05-03T01:34:30.335Z,6.50
2023-05-03T01:37:00.555Z,6.50
2023-05-03T01:39:44.084Z,6.50
2023-05-03T01:42:11.740Z,6.50
2023-05-03T01:44:39.997Z,6.50
2023-05-03T01:47:08.940Z,6.40
2023-05-03T01:49:36.402Z,6.40
2023-05-03T01:52:03.871Z,6.40
2023-05-03T01:54:31.087Z,6.40
2023-05-03T01:56:58.546Z,6.30
2023-05-03T01:59:25.735Z,6.30
2023-05-03T02:01:53.111Z,6.30
2023-05-03T02:04:20.328Z,6.20
2023-05-03T02:06:47.866Z,6.20
2023-05-03T02:09:15.387Z,6.20
2023-05-03T02:11:44.262Z,6.10
2023-05-03T02:14:12.397Z,6.10
2023-05-03T02:16:40.459Z,6.10
2023-05-03T02:19:08.272Z,6.10
2023-05-03T02:21:37.090Z,6.00
2023-05-03T02:24:04.596Z,6.00
2023-05-03T02:26:31.839Z,5.90
2023-05-03T02:28:59.105Z,5.90
2023-05-03T02:31:27.260Z,5.90
2023-05-03T02:33:55.392Z,5.80
2023-05-03T02:36:22.544Z,5.80
2023-05-03T02:38:49.828Z,5.70
2023-05-03T02:41:16.971Z,5.70
2023-05-03T02:43:44.438Z,5.60
2023-05-03T02:46:11.842Z,5.60
2023-05-03T02:48:41.698Z,5.50
2023-05-03T02:51:09.442Z,5.50
2023-05-03T02:53:36.663Z,5.40
2023-05-03T02:56:04.061Z,5.40
2023-05-03T02:58:31.433Z,5.30
2023-05-03T03:00:58.918Z,5.20
2023-05-03T03:03:26.738Z,5.20
2023-05-03T03:05:54.186Z,5.20
2023-05-03T03:08:21.352Z,5.10
2023-05-03T03:10:48.892Z,5.10
2023-05-03T03:13:16.587Z,5.00
2023-05-03T03:15:43.897Z,5.00
2023-05-03T03:18:11.429Z,4.90
2023-05-03T03:20:38.597Z,4.90
2023-05-03T03:23:05.981Z,4.90
2023-05-03T03:25:33.159Z,4.80
2023-05-03T03:28:01.050Z,4.80
2023-05-03T03:30:28.404Z,4.80
2023-05-03T03:32:56.176Z,4.70
2023-05-03T03:35:23.974Z,4.70
2023-05-03T03:37:51.071Z,4.60
2023-05-03T03:40:18.298Z,4.60
2023-05-03T03:42:45.914Z,4.60
2023-05-03T03:45:13.416Z,4.60
2023-05-03T03:47:40.763Z,4.50
2023-05-03T03:50:08.202Z,4.50
2023-05-03T03:52:35.674Z,4.40
2023-05-03T03:55:03.037Z,4.40
2023-05-03T03:57:32.075Z,4.40
2023-05-03T04:00:00.539Z,4.40
2023-05-03T04:02:28.653Z,4.30
2023-05-03T04:04:56.227Z,4.30
2023-05-03T04:07:26.908Z,4.30
2023-05-03T04:09:54.252Z,4.30
2023-05-03T04:12:21.551Z,4.30
2023-05-03T04:14:49.063Z,4.30
2023-05-03T04:17:16.284Z,4.40
2023-05-03T04:19:44.331Z,4.40
2023-05-03T04:22:11.659Z,4.40
2023-05-03T04:24:39.358Z,4.40
2023-05-03T04:27:06.904Z,4.50
2023-05-03T04:29:34.217Z,4.50
2023-05-03T04:32:02.736Z,4.50
2023-05-03T04:34:31.515Z,4.60
2023-05-03T04:37:00.908Z,4.60
2023-05-03T04:39:28.199Z,4.60
2023-05-03T04:41:55.680Z,4.70
2023-05-03T04:44:22.945Z,4.80
2023-05-03T04:46:51.173Z,4.80
2023-05-03T04:49:18.671Z,4.90
2023-05-03T04:51:46.084Z,5.00
2023-05-03T04:54:13.344Z,5.00
2023-05-03T04:56:43.168Z,5.10
2023-05-03T04:59:10.797Z,5.20
2023-05-03T05:01:38.058Z,5.30
2023-05-03T05:04:05.553Z,5.40
2023-05-03T05:06:32.891Z,5.40
2023-05-03T05:09:00.282Z,5.50
2023-05-03T05:11:28.024Z,5.60
2023-05-03T05:13:55.187Z,5.80
2023-05-03T05:16:23.027Z,5.90
2023-05-03T05:18:51.315Z,6.00
2023-05-03T05:21:18.424Z,6.20
2023-05-03T05:23:45.559Z,6.30
2023-05-03T05:26:12.993Z,6.40
2023-05-03T05:28:40.553Z,6.50
2023-05-03T05:31:08.064Z,6.60
2023-05-03T05:33:35.504Z,6.60
2023-05-03T05:36:02.880Z,6.70
2023-05-03T05:38:30.023Z,6.70
2023-05-03T05:40:57.594Z,6.70
2023-05-03T05:43:25.158Z,6.80
2023-05-03T05:45:52.617Z,6.80
2023-05-03T05:48:20.126Z,6.90
2023-05-03T05:50:47.354Z,6.90
2023-05-03T05:53:15.061Z,7.00
2023-05-03T05:55:42.303Z,7.10
2023-05-03T05:58:10.136Z,7.10
2023-05-03T06:00:37.433Z,7.20
2023-05-03T06:03:06.676Z,7.30
2023-05-03T06:05:34.100Z,7.30
2023-05-03T06:08:01.470Z,7.40
2023-05-03T06:10:28.841Z,7.50
2023-05-03T06:12:56.055Z,7.50
2023-05-03T06:15:23.287Z,7.60
2023-05-03T06:17:50.611Z,7.60
2023-05-03T06:20:18.464Z,7.70
2023-05-03T06:22:45.643Z,7.80
2023-05-03T06:25:16.913Z,7.90
2023-05-03T06:28:01.640Z,8.00
2023-05-03T06:30:28.819Z,8.10
2023-05-03T06:32:57.769Z,8.10
2023-05-03T06:35:25.007Z,8.30
2023-05-03T06:37:52.370Z,8.40
2023-05-03T06:40:19.849Z,8.50
2023-05-03T06:42:47.119Z,8.60
2023-05-03T06:45:14.700Z,8.70
2023-05-03T06:47:43.013Z,8.70
2023-05-03T06:50:11.376Z,8.80
2023-05-03T06:52:38.585Z,8.90
2023-05-03T06:55:06.444Z,8.90
2023-05-03T06:57:36.396Z,9.00
2023-05-03T07:00:07.530Z,9.00
2023-05-03T07:02:35.167Z,9.00
2023-05-03T07:05:02.536Z,9.10
2023-05-03T07:07:29.716Z,9.10
2023-05-03T07:09:56.942Z,9.20
2023-05-03T07:12:27.965Z,9.20
2023-05-03T07:14:55.742Z,9.30
2023-05-03T07:17:23.317Z,9.40
2023-05-03T07:19:51.637Z,9.40
2023-05-03T07:22:21.531Z,9.50
2023-05-03T07:24:48.837Z,9.50
2023-05-03T07:27:16.374Z,9.60
2023-05-03T07:29:43.703Z,9.70
2023-05-03T07:32:10.921Z,9.70
2023-05-03T07:34:38.107Z,9.60
2023-05-03T07:37:05.331Z,9.70
2023-05-03T07:39:32.500Z,9.70
2023-05-03T07:41:59.655Z,9.70
2023-05-03T07:44:33.438Z,9.70
2023-05-03T07:47:00.646Z,9.70
2023-05-03T07:49:28.177Z,9.70
2023-05-03T07:51:55.571Z,9.80
2023-05-03T07:54:22.894Z,9.90
2023-05-03T07:56:50.087Z,9.90
2023-05-03T07:59:17.478Z,9.90
2023-05-03T08:01:44.630Z,10.10
2023-05-03T08:04:12.159Z,10.20
2023-05-03T08:06:39.480Z,10.30
2023-05-03T08:09:09.312Z,10.50
2023-05-03T08:11:36.957Z,10.70
2023-05-03T08:14:04.280Z,10.70
2023-05-03T08:16:31.677Z,10.70
2023-05-03T08:18:58.975Z,10.80
2023-05-03T08:21:26.390Z,10.70
2023-05-03T08:23:56.590Z,10.60
2023-05-03T08:26:24.481Z,10.50
2023-05-03T08:28:51.553Z,10.40
2023-05-03T08:31:18.737Z,10.50
2023-05-03T08:33:45.915Z,10.50
2023-05-03T08:36:13.151Z,10.50
2023-05-03T08:38:43.518Z,10.60
2023-05-03T08:41:34.187Z,10.60
2023-05-03T08:44:02.356Z,10.70
2023-05-03T08:46:29.753Z,10.80
2023-05-03T08:48:57.672Z,10.90
2023-05-03T08:51:25.762Z,10.90
2023-05-03T08:53:53.094Z,11.00
2023-05-03T08:56:30.489Z,11.10
2023-05-03T08:59:01.671Z,11.10
2023-05-03T09:01:28.873Z,11.10
2023-05-03T09:03:59.514Z,11.10
2023-05-03T09:06:27.557Z,11.10
2023-05-03T09:08:55.299Z,11.10
2023-05-03T09:11:32.867Z,11.10
2023-05-03T09:14:13.353Z,11.20
2023-05-03T09:16:42.269Z,11.40
2023-05-03T09:19:12.058Z,11.80
2023-05-03T09:21:49.558Z,12.10
2023-05-03T09:24:19.060Z,12.30
2023-05-03T09:26:51.385Z,12.40
2023-05-03T09:29:33.073Z,12.40
2023-05-03T09:32:02.769Z,12.40
2023-05-03T09:34:30.378Z,12.30
2023-05-03T09:36:58.471Z,12.20
2023-05-03T09:39:25.750Z,12.20
2023-05-03T09:41:53.322Z,12.10
2023-05-03T09:44:20.651Z,12.20
2023-05-03T09:47:06.916Z,12.20
2023-05-03T09:49:35.460Z,12.30
2023-05-03T09:52:04.745Z,12.30
2023-05-03T09:54:32.162Z,12.30
2023-05-03T09:57:01.128Z,12.40
2023-05-03T09:59:31.119Z,12.30
2023-05-03T10:02:01.821Z,12.40
2023-05-03T10:04:33.557Z,12.40
2023-05-03T10:07:04.559Z,12.40
2023-05-03T10:09:44.900Z,12.30
2023-05-03T10:12:13.454Z,12.30
2023-05-03T10:14:46.811Z,12.20
2023-05-03T10:17:17.092Z,12.20
2023-05-03T10:19:53.106Z,12.20
2023-05-03T10:22:20.611Z,12.20
2023-05-03T10:25:03.429Z,12.20
2023-05-03T10:27:54.545Z,12.30
2023-05-03T10:30:35.686Z,12.40
2023-05-03T10:33:14.931Z,12.50
2023-05-03T10:35:44.734Z,12.60
2023-05-03T10:38:16.479Z,12.90
2023-05-03T10:40:44.992Z,13.20
2023-05-03T10:43:30.831Z,13.30
2023-05-03T10:46:05.272Z,13.40
2023-05-03T10:48:34.054Z,13.50
2023-05-03T10:51:31.021Z,13.60
2023-05-03T10:53:58.404Z,13.60
2023-05-03T10:56:25.604Z,13.70
2023-05-03T10:58:56.508Z,13.90
2023-05-03T11:01:25.268Z,14.10
2023-05-03T11:04:12.857Z,14.20
2023-05-03T11:06:41.697Z,14.20
2023-05-03T11:09:12.372Z,14.20
2023-05-03T11:11:41.459Z,14.10
2023-05-03T11:14:10.222Z,14.10
2023-05-03T11:16:47.596Z,14.20
2023-05-03T11:19:16.033Z,14.40
2023-05-03T11:21:44.878Z,14.60
2023-05-03T11:24:13.555Z,14.80
2023-05-03T11:26:42.065Z,15.00
2023-05-03T11:29:14.349Z,15.00
2023-05-03T11:31:43.567Z,14.90
2023-05-03T11:34:12.319Z,14.60
2023-05-03T11:36:42.643Z,14.50
2023-05-03T11:39:12.444Z,14.40
2023-05-03T11:41:39.870Z,14.40
2023-05-03T11:44:15.908Z,14.40
2023-05-03T11:46:46.510Z,14.60
2023-05-03T11:49:19.695Z,14.90
2023-05-03T11:51:49.851Z,15.20
2023-05-03T11:54:26.304Z,15.50
2023-05-03T11:57:12.671Z,15.80
2023-05-03T11:59:40.810Z,16.10
2023-05-03T12:02:10.442Z,16.40
2023-05-03T12:04:43.558Z,16.70
2023-05-03T12:07:13.516Z,16.70
2023-05-03T12:09:43.949Z,16.60
2023-05-03T12:12:24.175Z,16.30
2023-05-03T12:15:03.682Z,16.00
2023-05-03T12:17:42.956Z,15.80
2023-05-03T12:22:58.821Z,15.60
2023-05-03T12:25:29.180Z,15.70
2023-05-03T12:30:35.224Z,16.10
2023-05-03T12:33:04.870Z,16.20
2023-05-03T12:35:34.117Z,16.30
2023-05-03T12:38:09.037Z,16.40
2023-05-03T12:40:37.194Z,16.40
2023-05-03T12:43:05.110Z,16.60
2023-05-03T12:45:34.571Z,16.90
2023-05-03T12:48:03.301Z,17.20
2023-05-03T12:50:37.993Z,17.50
2023-05-03T12:53:09.306Z,17.80
2023-05-03T12:55:43.238Z,18.10
2023-05-03T13:00:50.760Z,18.50
2023-05-03T13:03:33.353Z,18.40
2023-05-03T13:06:11.123Z,18.20
2023-05-03T13:11:13.393Z,18.00
2023-05-03T13:13:41.201Z,18.00
2023-05-03T13:16:09.642Z,18.10
2023-05-03T13:18:37.534Z,18.20
2023-05-03T13:21:05.294Z,18.40
2023-05-03T13:23:34.240Z,18.70
2023-05-03T13:26:01.481Z,19.10
2023-05-03T13:28:29.639Z,19.40
2023-05-03T13:30:57.454Z,19.40
2023-05-03T13:33:24.973Z,19.40
2023-05-03T13:35:52.294Z,19.40
2023-05-03T13:38:19.620Z,19.30
2023-05-03T13:40:47.107Z,19.20
2023-05-03T13:43:14.519Z,19.00
2023-05-03T13:45:42.445Z,18.90
2023-05-03T13:48:17.871Z,19.00
2023-05-03T13:50:47.411Z,19.10
2023-05-03T13:53:15.364Z,19.10
2023-05-03T13:55:42.676Z,19.10
2023-05-03T13:58:09.874Z,19.20
2023-05-03T14:00:38.360Z,19.10
2023-05-03T14:03:07.947Z,19.10
2023-05-03T14:05:36.352Z,19.20
2023-05-03T14:08:03.585Z,19.30
2023-05-03T14:10:34.385Z,19.40
2023-05-03T14:13:01.851Z,19.50
2023-05-03T14:15:29.340Z,19.70
2023-05-03T14:17:59.413Z,19.70
2023-05-03T14:20:28.297Z,19.60
2023-05-03T14:22:55.418Z,19.40
2023-05-03T14:25:23.501Z,19.30
2023-05-03T14:27:50.792Z,19.10
2023-05-03T14:30:18.147Z,18.80
2023-05-03T14:32:45.424Z,18.60
2023-05-03T14:35:12.708Z,18.30
2023-05-03T14:37:39.996Z,18.20
2023-05-03T14:40:08.140Z,18.10
2023-05-03T14:42:35.490Z,18.00
2023-05-03T14:45:02.849Z,17.90
2023-05-03T14:47:30.302Z,18.00
2023-05-03T14:49:57.614Z,18.00
2023-05-03T14:52:24.780Z,18.00
2023-05-03T14:54:52.921Z,18.20
2023-05-03T14:57:20.295Z,18.30
2023-05-03T14:59:48.142Z,18.10
2023-05-03T15:02:15.423Z,18.10
2023-05-03T15:04:43.427Z,17.90
2023-05-03T15:07:11.852Z,17.60
2023-05-03T15:09:39.644Z,17.30
2023-05-03T15:12:08.117Z,17.30
2023-05-03T15:14:35.575Z,17.30
2023-05-03T15:17:03.021Z,17.30
2023-05-03T15:19:30.821Z,17.40
2023-05-03T15:22:00.763Z,17.40
2023-05-03T15:24:28.125Z,17.40
2023-05-03T15:26:55.401Z,17.50
2023-05-03T15:29:22.939Z,17.50
2023-05-03T15:31:50.307Z,17.40
2023-05-03T15:34:17.648Z,17.30
2023-05-03T15:36:45.068Z,17.10
2023-05-03T15:39:13.452Z,17.10
2023-05-03T15:41:41.116Z,17.10
2023-05-03T15:44:10.122Z,17.00
2023-05-03T15:46:37.707Z,17.00
2023-05-03T15:49:06.549Z,16.90
2023-05-03T15:51:33.920Z,16.70
2023-05-03T15:54:01.761Z,16.60
2023-05-03T15:56:29.402Z,16.50
2023-05-03T15:58:57.241Z,16.40
2023-05-03T16:01:25.056Z,16.40
2023-05-03T16:03:52.677Z,16.40
2023-05-03T16:06:19.916Z,16.30
2023-05-03T16:08:47.256Z,16.20
2023-05-03T16:11:15.339Z,16.20
2023-05-03T16:13:42.475Z,16.10
2023-05-03T16:16:09.636Z,16.00
2023-05-03T16:18:36.860Z,15.90
2023-05-03T16:21:06.694Z,15.90
2023-05-03T16:23:36.645Z,15.80
2023-05-03T16:26:14.700Z,15.80
2023-05-03T16:28:42.142Z,15.70
2023-05-03T16:31:09.547Z,15.60
2023-05-03T16:33:37.025Z,15.50
2023-05-03T16:36:05.156Z,15.40
2023-05-03T16:38:32.454Z,15.40
2023-05-03T16:41:00.791Z,15.40
2023-05-03T16:43:28.182Z,15.40
2023-05-03T16:46:00.563Z,15.40
2023-05-03T16:48:32.418Z,15.40
2023-05-03T16:51:00.260Z,15.40
2023-05-03T16:53:27.664Z,15.40
2023-05-03T16:55:55.278Z,15.30
2023-05-03T16:58:22.813Z,15.30
2023-05-03T17:00:50.219Z,15.20
2023-05-03T17:03:17.563Z,15.20
2023-05-03T17:05:47.201Z,15.10
2023-05-03T17:08:15.657Z,15.00
2023-05-03T17:10:42.835Z,14.90
2023-05-03T17:13:10.876Z,14.80
2023-05-03T17:15:38.711Z,14.70
2023-05-03T17:18:06.700Z,14.70
2023-05-03T17:20:35.356Z,14.50
2023-05-03T17:23:02.530Z,14.50
2023-05-03T17:25:30.109Z,14.50
2023-05-03T17:27:57.529Z,14.40
2023-05-03T17:30:25.001Z,14.50
2023-05-03T17:32:52.273Z,14.50
2023-05-03T17:35:19.664Z,14.50
2023-05-03T17:37:47.216Z,14.40
2023-05-03T17:40:14.794Z,14.40
2023-05-03T17:42:42.213Z,14.40
2023-05-03T17:45:13.340Z,14.30
2023-05-03T17:47:41.004Z,14.30
2023-05-03T17:50:12.898Z,14.20
2023-05-03T17:52:44.338Z,14.20
2023-05-03T17:55:12.470Z,14.20
2023-05-03T17:57:40.419Z,14.10
2023-05-03T18:00:11.494Z,14.10
2023-05-03T18:02:38.903Z,14.00
2023-05-03T18:05:07.904Z,14.00
2023-05-03T18:07:35.619Z,13.90
2023-05-03T18:10:03.268Z,13.80
2023-05-03T18:12:31.151Z,13.80
2023-05-03T18:15:01.382Z,13.70
2023-05-03T18:17:29.665Z,13.70
2023-05-03T18:19:57.086Z,13.70
2023-05-03T18:22:26.069Z,13.70
2023-05-03T18:24:59.694Z,13.70
2023-05-03T18:27:31.324Z,13.70
2023-05-03T18:29:58.752Z,13.60
2023-05-03T18:32:26.356Z,13.60
2023-05-03T18:34:53.598Z,13.60
2023-05-03T18:37:24.563Z,13.60
2023-05-03T18:39:54.971Z,13.50
2023-05-03T18:42:25.176Z,13.40
2023-05-03T18:44:52.611Z,13.40
2023-05-03T18:47:22.075Z,13.30
2023-05-03T18:49:53.309Z,13.30
2023-05-03T18:52:34.924Z,13.20
2023-05-03T18:55:02.629Z,13.10
2023-05-03T18:57:33.405Z,13.00
2023-05-03T19:00:08.047Z,12.90
2023-05-03T19:02:36.049Z,12.90
2023-05-03T19:05:03.508Z,12.80
2023-05-03T19:07:31.025Z,12.70
2023-05-03T19:09:58.847Z,12.70
2023-05-03T19:12:26.233Z,12.60
2023-05-03T19:14:53.464Z,12.50
2023-05-03T19:17:20.879Z,12.50
2023-05-03T19:19:48.084Z,12.40
2023-05-03T19:22:15.742Z,12.30
2023-05-03T19:24:44.236Z,12.30
2023-05-03T19:27:11.997Z,12.20
2023-05-03T19:29:39.440Z,12.10
2023-05-03T19:32:06.969Z,12.00
2023-05-03T19:34:36.555Z,11.90
2023-05-03T19:39:36.095Z,11.60
2023-05-03T19:42:04.287Z,11.60
2023-05-03T19:44:32.234Z,11.50
2023-05-03T19:46:59.578Z,11.40
2023-05-03T19:49:28.858Z,11.30
2023-05-03T19:51:56.290Z,11.20
2023-05-03T19:54:23.971Z,11.20
2023-05-03T19:56:51.597Z,11.10
2023-05-03T19:59:18.892Z,11.10
2023-05-03T20:01:52.868Z,11.10
2023-05-03T20:04:23.206Z,11.00
2023-05-03T20:06:50.652Z,10.90
2023-05-03T20:09:18.159Z,10.90
2023-05-03T20:11:45.768Z,10.80
2023-05-03T20:14:15.628Z,10.80
2023-05-03T20:16:44.592Z,10.70
2023-05-03T20:19:16.401Z,10.70
2023-05-03T20:21:44.036Z,10.60
2023-05-03T20:24:11.406Z,10.50
2023-05-03T20:26:38.938Z,10.50
2023-05-03T20:29:06.459Z,10.40
2023-05-03T20:31:34.027Z,10.30
2023-05-03T20:34:01.614Z,10.30
2023-05-03T20:36:29.318Z,10.30
2023-05-03T20:38:56.946Z,10.30
2023-05-03T20:41:24.546Z,10.20
2023-05-03T20:43:53.672Z,10.20
2023-05-03T20:46:21.340Z,10.10
2023-05-03T20:48:48.735Z,10.00
2023-05-03T20:51:18.958Z,9.90
2023-05-03T20:53:46.213Z,9.90
2023-05-03T20:56:13.518Z,9.80
2023-05-03T20:58:40.867Z,9.80
2023-05-03T21:01:08.378Z,9.80
2023-05-03T21:03:35.726Z,9.70
2023-05-03T21:06:04.681Z,9.70
2023-05-03T21:08:32.100Z,9.70
2023-05-03T21:10:59.571Z,9.60
2023-05-03T21:13:26.768Z,9.50
2023-05-03T21:15:55.226Z,9.40
2023-05-03T21:18:22.576Z,9.30
2023-05-03T21:20:49.928Z,9.20
2023-05-03T21:23:17.472Z,9.20
2023-05-03T21:25:44.827Z,9.20
2023-05-03T21:28:12.129Z,9.20
2023-05-03T21:30:40.919Z,9.20
2023-05-03T21:33:08.434Z,9.10
2023-05-03T21:35:36.007Z,9.10
2023-05-03T21:38:03.399Z,9.10
2023-05-03T21:40:30.678Z,9.10
2023-05-03T21:42:57.950Z,9.10
2023-05-03T21:45:25.193Z,9.10
2023-05-03T21:47:52.401Z,9.00
2023-05-03T21:50:20.183Z,8.90
2023-05-03T21:52:48.092Z,8.90
2023-05-03T21:55:15.315Z,8.90
2023-05-03T21:57:42.626Z,8.80
2023-05-03T22:00:15.438Z,8.70
2023-05-03T22:02:43.293Z,8.70
2023-05-03T22:05:10.681Z,8.60
2023-05-03T22:07:38.772Z,8.60
2023-05-03T22:10:07.029Z,8.60
2023-05-03T22:12:34.799Z,8.60
2023-05-03T22:15:02.661Z,8.60
2023-05-03T22:17:29.912Z,8.60
2023-05-03T22:19:57.319Z,8.60
2023-05-03T22:22:24.501Z,8.60
2023-05-03T22:24:51.778Z,8.50
2023-05-03T22:27:19.087Z,8.50
2023-05-03T22:29:46.799Z,8.50
2023-05-03T22:32:13.994Z,8.50
2023-05-03T22:34:41.380Z,8.40
2023-05-03T22:37:08.603Z,8.40
2023-05-03T22:39:36.040Z,8.40
2023-05-03T22:42:03.470Z,8.30
2023-05-03T22:44:32.304Z,8.30
2023-05-03T22:46:59.482Z,8.30
2023-05-03T22:49:27.202Z,8.20
2023-05-03T22:51:54.458Z,8.20
2023-05-03T22:54:22.874Z,8.10
2023-05-03T22:56:51.478Z,8.10
2023-05-03T22:59:19.170Z,8.10
2023-05-03T23:01:49.778Z,8.00
2023-05-03T23:04:17.126Z,8.00
2023-05-03T23:06:44.774Z,7.90
2023-05-03T23:09:12.099Z,7.90
2023-05-03T23:11:39.613Z,7.90
2023-05-03T23:14:07.127Z,7.80
2023-05-03T23:16:34.580Z,7.80
2023-05-03T23:19:02.429Z,7.80
2023-05-03T23:21:30.446Z,7.70
2023-05-03T23:23:57.830Z,7.70
2023-05-03T23:26:25.525Z,7.70
2023-05-03T23:28:53.516Z,7.60
2023-05-03T23:31:21.275Z,7.60
2023-05-03T23:33:48.885Z,7.50
2023-05-03T23:36:15.954Z,7.50
2023-05-03T23:38:43.236Z,7.40
2023-05-03T23:41:10.609Z,7.40
2023-05-03T23:43:38.067Z,7.40
2023-05-03T23:46:05.440Z,7.40
2023-05-03T23:48:33.158Z,7.40
2023-05-03T23:51:00.630Z,7.30
2023-05-03T23:53:27.725Z,7.30
2023-05-03T23:55:54.976Z,7.30
2023-05-03T23:58:22.228Z,7.20
